Ocean Gate, New Jersey
Current Conditions -  °F | °C
As of 5:35 PM on Monday 20 Oct 2014 (Local Time) from KMJX Reporting Station
Clear Clear  
Wind Chill: 61°   Ceiling: Unl
Heat Index: 61°   Visibility: 10mi
Dew Point: 39°   Wind: 0mph
Humidity: 45%   Direction: NA
Pressure: 29.99"   Gusts: NA
Location:  39.92°N, 74.13°W
Report Text: KMJX 202135Z AUTO 00000KT 10SM CLR 16/04 A2999 RMK AO1
Loading
Personal Weather Stations






























Interactive Weather Map
Tropical Storm Tracking
New forecast layout! Learn more

10-Day Weather Forecast

Advertisements
Track Severe Weather on mobile